sensor_id;sensor_type;location;lat;lon;timestamp;P1;durP1;ratioP1;P2;durP2;ratioP2
30970;SDS011;17651;52.262;10.498;2024-02-28T00:00:37;17.15;;;11.88;;
30970;SDS011;17651;52.262;10.498;2024-02-28T00:02:48;18.85;;;11.85;;
30970;SDS011;17651;52.262;10.498;2024-02-28T00:04:59;17.33;;;12.25;;
30970;SDS011;17651;52.262;10.498;2024-02-28T00:07:10;19.63;;;13.05;;
30970;SDS011;17651;52.262;10.498;2024-02-28T00:09:22;15.98;;;12.25;;
30970;SDS011;17651;52.262;10.498;2024-02-28T00:11:33;16.15;;;10.75;;
30970;SDS011;17651;52.262;10.498;2024-02-28T00:13:44;18.00;;;12.02;;
30970;SDS011;17651;52.262;10.498;2024-02-28T00:15:55;15.82;;;11.43;;
30970;SDS011;17651;52.262;10.498;2024-02-28T00:18:06;18.83;;;12.35;;
30970;SDS011;17651;52.262;10.498;2024-02-28T00:20:17;17.88;;;12.15;;
30970;SDS011;17651;52.262;10.498;2024-02-28T00:22:28;20.80;;;13.38;;
30970;SDS011;17651;52.262;10.498;2024-02-28T00:24:40;14.10;;;11.85;;
30970;SDS011;17651;52.262;10.498;2024-02-28T00:26:51;16.42;;;11.70;;
30970;SDS011;17651;52.262;10.498;2024-02-28T00:29:02;17.73;;;12.57;;
30970;SDS011;17651;52.262;10.498;2024-02-28T00:31:13;17.10;;;11.60;;
30970;SDS011;17651;52.262;10.498;2024-02-28T00:33:24;18.42;;;11.50;;
30970;SDS011;17651;52.262;10.498;2024-02-28T00:35:35;16.73;;;11.27;;
30970;SDS011;17651;52.262;10.498;2024-02-28T00:37:46;17.08;;;12.65;;
30970;SDS011;17651;52.262;10.498;2024-02-28T00:39:57;15.45;;;10.73;;
30970;SDS011;17651;52.262;10.498;2024-02-28T00:42:08;18.00;;;12.60;;
30970;SDS011;17651;52.262;10.498;2024-02-28T00:44:19;15.45;;;10.70;;
30970;SDS011;17651;52.262;10.498;2024-02-28T00:46:30;15.77;;;11.30;;
30970;SDS011;17651;52.262;10.498;2024-02-28T00:48:41;17.63;;;12.43;;
30970;SDS011;17651;52.262;10.498;2024-02-28T00:50:53;18.95;;;12.88;;
30970;SDS011;17651;52.262;10.498;2024-02-28T00:53:04;17.55;;;12.35;;
30970;SDS011;17651;52.262;10.498;2024-02-28T00:55:15;19.05;;;12.35;;
30970;SDS011;17651;52.262;10.498;2024-02-28T00:57:26;18.73;;;12.82;;
30970;SDS011;17651;52.262;10.498;2024-02-28T00:59:37;17.00;;;11.93;;
30970;SDS011;17651;52.262;10.498;2024-02-28T01:01:48;17.67;;;12.48;;
30970;SDS011;17651;52.262;10.498;2024-02-28T01:04:00;17.52;;;11.73;;
30970;SDS011;17651;52.262;10.498;2024-02-28T01:06:11;18.85;;;13.50;;
30970;SDS011;17651;52.262;10.498;2024-02-28T01:08:22;21.00;;;14.23;;
30970;SDS011;17651;52.262;10.498;2024-02-28T01:10:33;18.60;;;13.27;;
30970;SDS011;17651;52.262;10.498;2024-02-28T01:12:44;18.45;;;13.10;;
30970;SDS011;17651;52.262;10.498;2024-02-28T01:14:55;20.58;;;13.88;;
30970;SDS011;17651;52.262;10.498;2024-02-28T01:17:07;18.83;;;12.98;;
30970;SDS011;17651;52.262;10.498;2024-02-28T01:19:18;19.83;;;12.85;;
30970;SDS011;17651;52.262;10.498;2024-02-28T01:21:29;18.08;;;13.40;;
30970;SDS011;17651;52.262;10.498;2024-02-28T01:23:40;19.90;;;13.65;;
30970;SDS011;17651;52.262;10.498;2024-02-28T01:25:51;19.15;;;14.18;;
30970;SDS011;17651;52.262;10.498;2024-02-28T01:28:03;19.83;;;14.40;;
30970;SDS011;17651;52.262;10.498;2024-02-28T01:30:14;18.20;;;13.93;;
30970;SDS011;17651;52.262;10.498;2024-02-28T01:32:25;21.00;;;14.43;;
30970;SDS011;17651;52.262;10.498;2024-02-28T01:34:37;20.80;;;14.65;;
30970;SDS011;17651;52.262;10.498;2024-02-28T01:36:48;19.58;;;13.65;;
30970;SDS011;17651;52.262;10.498;2024-02-28T01:38:59;22.00;;;15.05;;
30970;SDS011;17651;52.262;10.498;2024-02-28T01:41:10;22.15;;;15.38;;
30970;SDS011;17651;52.262;10.498;2024-02-28T01:43:21;22.35;;;15.73;;
30970;SDS011;17651;52.262;10.498;2024-02-28T01:45:33;23.30;;;16.15;;
30970;SDS011;17651;52.262;10.498;2024-02-28T01:47:44;29.20;;;17.23;;
30970;SDS011;17651;52.262;10.498;2024-02-28T01:49:55;24.58;;;16.48;;
30970;SDS011;17651;52.262;10.498;2024-02-28T01:52:06;21.80;;;15.90;;
30970;SDS011;17651;52.262;10.498;2024-02-28T01:54:17;23.20;;;15.23;;
30970;SDS011;17651;52.262;10.498;2024-02-28T01:56:29;26.85;;;17.88;;
30970;SDS011;17651;52.262;10.498;2024-02-28T01:58:42;24.27;;;17.05;;
30970;SDS011;17651;52.262;10.498;2024-02-28T02:00:54;26.42;;;17.95;;
30970;SDS011;17651;52.262;10.498;2024-02-28T02:03:05;25.10;;;17.80;;
30970;SDS011;17651;52.262;10.498;2024-02-28T02:05:16;25.60;;;17.60;;
30970;SDS011;17651;52.262;10.498;2024-02-28T02:07:30;23.73;;;16.42;;
30970;SDS011;17651;52.262;10.498;2024-02-28T02:09:42;25.35;;;17.20;;
30970;SDS011;17651;52.262;10.498;2024-02-28T02:11:53;27.40;;;17.52;;
30970;SDS011;17651;52.262;10.498;2024-02-28T02:14:04;25.27;;;16.20;;
30970;SDS011;17651;52.262;10.498;2024-02-28T02:16:15;26.60;;;18.33;;
30970;SDS011;17651;52.262;10.498;2024-02-28T02:18:26;23.13;;;16.30;;
30970;SDS011;17651;52.262;10.498;2024-02-28T02:20:38;26.40;;;17.00;;
30970;SDS011;17651;52.262;10.498;2024-02-28T02:22:53;25.35;;;17.27;;
30970;SDS011;17651;52.262;10.498;2024-02-28T02:25:04;24.45;;;16.63;;
30970;SDS011;17651;52.262;10.498;2024-02-28T02:27:15;23.92;;;16.55;;
30970;SDS011;17651;52.262;10.498;2024-02-28T02:29:26;27.92;;;18.13;;
30970;SDS011;17651;52.262;10.498;2024-02-28T02:31:38;24.55;;;16.85;;
30970;SDS011;17651;52.262;10.498;2024-02-28T02:33:50;24.92;;;17.25;;
30970;SDS011;17651;52.262;10.498;2024-02-28T02:36:01;24.92;;;16.50;;
30970;SDS011;17651;52.262;10.498;2024-02-28T02:38:12;26.10;;;17.50;;
30970;SDS011;17651;52.262;10.498;2024-02-28T02:40:24;26.80;;;17.65;;
30970;SDS011;17651;52.262;10.498;2024-02-28T02:42:35;26.73;;;17.77;;
30970;SDS011;17651;52.262;10.498;2024-02-28T02:44:46;26.92;;;17.65;;
30970;SDS011;17651;52.262;10.498;2024-02-28T02:46:57;25.33;;;18.08;;
30970;SDS011;17651;52.262;10.498;2024-02-28T02:49:08;26.85;;;17.48;;
30970;SDS011;17651;52.262;10.498;2024-02-28T02:51:19;28.35;;;19.15;;
30970;SDS011;17651;52.262;10.498;2024-02-28T02:53:30;31.92;;;19.58;;
30970;SDS011;17651;52.262;10.498;2024-02-28T02:55:41;29.67;;;19.25;;
30970;SDS011;17651;52.262;10.498;2024-02-28T02:57:52;27.80;;;19.15;;
30970;SDS011;17651;52.262;10.498;2024-02-28T03:00:04;28.65;;;19.23;;
30970;SDS011;17651;52.262;10.498;2024-02-28T03:02:19;28.75;;;18.77;;
30970;SDS011;17651;52.262;10.498;2024-02-28T03:04:30;29.50;;;19.98;;
30970;SDS011;17651;52.262;10.498;2024-02-28T03:06:41;32.17;;;20.45;;
30970;SDS011;17651;52.262;10.498;2024-02-28T03:08:52;33.33;;;20.45;;
30970;SDS011;17651;52.262;10.498;2024-02-28T03:11:03;31.77;;;20.35;;
30970;SDS011;17651;52.262;10.498;2024-02-28T03:13:17;29.50;;;19.63;;
30970;SDS011;17651;52.262;10.498;2024-02-28T03:15:28;28.83;;;19.90;;
30970;SDS011;17651;52.262;10.498;2024-02-28T03:17:39;29.15;;;18.90;;
30970;SDS011;17651;52.262;10.498;2024-02-28T03:19:51;33.13;;;20.58;;
30970;SDS011;17651;52.262;10.498;2024-02-28T03:22:02;31.63;;;20.85;;
30970;SDS011;17651;52.262;10.498;2024-02-28T03:24:13;30.55;;;20.23;;
30970;SDS011;17651;52.262;10.498;2024-02-28T03:26:24;28.88;;;19.38;;
30970;SDS011;17651;52.262;10.498;2024-02-28T03:28:36;34.17;;;21.30;;
30970;SDS011;17651;52.262;10.498;2024-02-28T03:30:48;29.83;;;19.08;;
30970;SDS011;17651;52.262;10.498;2024-02-28T03:32:59;31.73;;;19.77;;
30970;SDS011;17651;52.262;10.498;2024-02-28T03:35:10;28.98;;;19.42;;
30970;SDS011;17651;52.262;10.498;2024-02-28T03:37:21;34.13;;;21.33;;
30970;SDS011;17651;52.262;10.498;2024-02-28T03:39:32;35.30;;;21.77;;
30970;SDS011;17651;52.262;10.498;2024-02-28T03:41:43;30.10;;;19.65;;
30970;SDS011;17651;52.262;10.498;2024-02-28T03:43:54;31.65;;;19.90;;
30970;SDS011;17651;52.262;10.498;2024-02-28T03:46:06;34.58;;;20.88;;
30970;SDS011;17651;52.262;10.498;2024-02-28T03:48:17;34.70;;;20.60;;
30970;SDS011;17651;52.262;10.498;2024-02-28T03:50:28;35.60;;;21.73;;
30970;SDS011;17651;52.262;10.498;2024-02-28T03:52:39;33.70;;;21.83;;
30970;SDS011;17651;52.262;10.498;2024-02-28T03:54:50;34.05;;;21.33;;
30970;SDS011;17651;52.262;10.498;2024-02-28T03:57:01;35.72;;;22.00;;
30970;SDS011;17651;52.262;10.498;2024-02-28T03:59:12;32.72;;;21.90;;
30970;SDS011;17651;52.262;10.498;2024-02-28T04:01:23;35.17;;;20.90;;
30970;SDS011;17651;52.262;10.498;2024-02-28T04:03:34;33.80;;;21.83;;
30970;SDS011;17651;52.262;10.498;2024-02-28T04:05:45;37.03;;;22.83;;
30970;SDS011;17651;52.262;10.498;2024-02-28T04:07:56;35.97;;;20.17;;
30970;SDS011;17651;52.262;10.498;2024-02-28T04:10:08;30.10;;;20.45;;
30970;SDS011;17651;52.262;10.498;2024-02-28T04:12:21;28.42;;;19.02;;
30970;SDS011;17651;52.262;10.498;2024-02-28T04:14:32;32.15;;;19.33;;
30970;SDS011;17651;52.262;10.498;2024-02-28T04:16:43;30.48;;;18.98;;
30970;SDS011;17651;52.262;10.498;2024-02-28T04:18:54;33.95;;;20.92;;
30970;SDS011;17651;52.262;10.498;2024-02-28T04:21:05;29.70;;;18.20;;
30970;SDS011;17651;52.262;10.498;2024-02-28T04:23:17;30.45;;;19.05;;
30970;SDS011;17651;52.262;10.498;2024-02-28T04:25:28;29.02;;;19.10;;
30970;SDS011;17651;52.262;10.498;2024-02-28T04:27:39;29.48;;;19.23;;
30970;SDS011;17651;52.262;10.498;2024-02-28T04:29:50;26.52;;;16.58;;
30970;SDS011;17651;52.262;10.498;2024-02-28T04:32:01;30.38;;;18.88;;
30970;SDS011;17651;52.262;10.498;2024-02-28T04:34:12;29.77;;;18.70;;
30970;SDS011;17651;52.262;10.498;2024-02-28T04:36:23;26.27;;;17.13;;
30970;SDS011;17651;52.262;10.498;2024-02-28T04:38:34;24.70;;;15.80;;
30970;SDS011;17651;52.262;10.498;2024-02-28T04:40:45;23.50;;;15.85;;
30970;SDS011;17651;52.262;10.498;2024-02-28T04:42:56;29.20;;;17.20;;
30970;SDS011;17651;52.262;10.498;2024-02-28T04:45:07;26.73;;;17.25;;
30970;SDS011;17651;52.262;10.498;2024-02-28T04:47:19;26.80;;;15.82;;
30970;SDS011;17651;52.262;10.498;2024-02-28T04:49:30;29.27;;;16.33;;
30970;SDS011;17651;52.262;10.498;2024-02-28T04:51:41;25.42;;;16.42;;
30970;SDS011;17651;52.262;10.498;2024-02-28T04:53:53;26.88;;;16.35;;
30970;SDS011;17651;52.262;10.498;2024-02-28T04:56:04;26.23;;;16.48;;
30970;SDS011;17651;52.262;10.498;2024-02-28T04:58:15;25.45;;;16.92;;
30970;SDS011;17651;52.262;10.498;2024-02-28T05:00:26;27.10;;;16.15;;
30970;SDS011;17651;52.262;10.498;2024-02-28T05:02:37;25.15;;;16.58;;
30970;SDS011;17651;52.262;10.498;2024-02-28T05:04:48;25.80;;;16.00;;
30970;SDS011;17651;52.262;10.498;2024-02-28T05:06:59;26.83;;;16.48;;
30970;SDS011;17651;52.262;10.498;2024-02-28T05:09:10;27.20;;;16.95;;
30970;SDS011;17651;52.262;10.498;2024-02-28T05:11:21;22.33;;;15.98;;
30970;SDS011;17651;52.262;10.498;2024-02-28T05:13:32;24.25;;;15.73;;
30970;SDS011;17651;52.262;10.498;2024-02-28T05:15:43;25.92;;;15.75;;
30970;SDS011;17651;52.262;10.498;2024-02-28T05:17:54;23.80;;;15.90;;
30970;SDS011;17651;52.262;10.498;2024-02-28T05:20:05;26.15;;;16.67;;
30970;SDS011;17651;52.262;10.498;2024-02-28T05:22:17;26.80;;;16.85;;
30970;SDS011;17651;52.262;10.498;2024-02-28T05:24:28;25.88;;;16.00;;
30970;SDS011;17651;52.262;10.498;2024-02-28T05:26:39;23.75;;;16.25;;
30970;SDS011;17651;52.262;10.498;2024-02-28T05:28:50;27.90;;;17.10;;
30970;SDS011;17651;52.262;10.498;2024-02-28T05:31:02;25.08;;;16.08;;
30970;SDS011;17651;52.262;10.498;2024-02-28T05:33:13;26.92;;;17.30;;
30970;SDS011;17651;52.262;10.498;2024-02-28T05:35:24;26.77;;;17.65;;
30970;SDS011;17651;52.262;10.498;2024-02-28T05:37:35;28.42;;;17.67;;
30970;SDS011;17651;52.262;10.498;2024-02-28T05:39:46;29.67;;;17.58;;
30970;SDS011;17651;52.262;10.498;2024-02-28T05:41:58;24.27;;;15.80;;
30970;SDS011;17651;52.262;10.498;2024-02-28T05:44:09;24.92;;;15.52;;
30970;SDS011;17651;52.262;10.498;2024-02-28T05:46:20;25.80;;;16.48;;
30970;SDS011;17651;52.262;10.498;2024-02-28T05:48:32;31.40;;;17.58;;
30970;SDS011;17651;52.262;10.498;2024-02-28T05:50:43;25.30;;;15.73;;
30970;SDS011;17651;52.262;10.498;2024-02-28T05:52:54;25.92;;;16.05;;
30970;SDS011;17651;52.262;10.498;2024-02-28T05:55:05;28.10;;;16.27;;
30970;SDS011;17651;52.262;10.498;2024-02-28T05:57:16;32.90;;;17.83;;
30970;SDS011;17651;52.262;10.498;2024-02-28T05:59:27;29.38;;;16.73;;
30970;SDS011;17651;52.262;10.498;2024-02-28T06:01:39;29.23;;;16.45;;
30970;SDS011;17651;52.262;10.498;2024-02-28T06:03:51;25.23;;;15.82;;
30970;SDS011;17651;52.262;10.498;2024-02-28T06:06:02;26.58;;;17.45;;
30970;SDS011;17651;52.262;10.498;2024-02-28T06:08:16;29.52;;;17.73;;
30970;SDS011;17651;52.262;10.498;2024-02-28T06:10:27;29.45;;;17.35;;
30970;SDS011;17651;52.262;10.498;2024-02-28T06:12:38;28.48;;;16.75;;
30970;SDS011;17651;52.262;10.498;2024-02-28T06:14:49;25.70;;;16.08;;
30970;SDS011;17651;52.262;10.498;2024-02-28T06:17:00;32.08;;;16.95;;
30970;SDS011;17651;52.262;10.498;2024-02-28T06:19:11;27.40;;;17.65;;
30970;SDS011;17651;52.262;10.498;2024-02-28T06:21:22;34.08;;;18.60;;
30970;SDS011;17651;52.262;10.498;2024-02-28T06:23:33;31.00;;;17.67;;
30970;SDS011;17651;52.262;10.498;2024-02-28T06:25:45;29.27;;;17.95;;
30970;SDS011;17651;52.262;10.498;2024-02-28T06:27:56;30.33;;;18.27;;
30970;SDS011;17651;52.262;10.498;2024-02-28T06:30:07;27.70;;;17.05;;
30970;SDS011;17651;52.262;10.498;2024-02-28T06:32:18;31.30;;;18.73;;
30970;SDS011;17651;52.262;10.498;2024-02-28T06:34:29;31.20;;;18.85;;
30970;SDS011;17651;52.262;10.498;2024-02-28T06:36:41;33.38;;;20.98;;
30970;SDS011;17651;52.262;10.498;2024-02-28T06:38:52;34.83;;;20.17;;
30970;SDS011;17651;52.262;10.498;2024-02-28T06:41:06;36.22;;;20.85;;
30970;SDS011;17651;52.262;10.498;2024-02-28T06:43:17;37.40;;;20.90;;
30970;SDS011;17651;52.262;10.498;2024-02-28T06:45:28;37.20;;;20.80;;
30970;SDS011;17651;52.262;10.498;2024-02-28T06:47:39;39.15;;;21.70;;
30970;SDS011;17651;52.262;10.498;2024-02-28T06:49:50;39.45;;;22.38;;
30970;SDS011;17651;52.262;10.498;2024-02-28T06:52:02;39.80;;;22.13;;
30970;SDS011;17651;52.262;10.498;2024-02-28T06:54:13;36.80;;;21.17;;
30970;SDS011;17651;52.262;10.498;2024-02-28T06:56:24;41.00;;;23.42;;
30970;SDS011;17651;52.262;10.498;2024-02-28T06:58:35;40.13;;;23.30;;
30970;SDS011;17651;52.262;10.498;2024-02-28T07:00:46;41.25;;;23.77;;
30970;SDS011;17651;52.262;10.498;2024-02-28T07:02:57;46.13;;;24.27;;
30970;SDS011;17651;52.262;10.498;2024-02-28T07:05:09;44.38;;;23.88;;
30970;SDS011;17651;52.262;10.498;2024-02-28T07:07:20;43.35;;;22.98;;
30970;SDS011;17651;52.262;10.498;2024-02-28T07:09:31;48.85;;;26.02;;
30970;SDS011;17651;52.262;10.498;2024-02-28T07:11:42;41.72;;;23.05;;
30970;SDS011;17651;52.262;10.498;2024-02-28T07:13:53;43.13;;;22.70;;
30970;SDS011;17651;52.262;10.498;2024-02-28T07:16:05;42.83;;;23.63;;
30970;SDS011;17651;52.262;10.498;2024-02-28T07:18:16;42.95;;;23.70;;
30970;SDS011;17651;52.262;10.498;2024-02-28T07:20:27;43.70;;;24.05;;
30970;SDS011;17651;52.262;10.498;2024-02-28T07:22:38;43.28;;;23.85;;
30970;SDS011;17651;52.262;10.498;2024-02-28T07:24:50;41.53;;;24.52;;
30970;SDS011;17651;52.262;10.498;2024-02-28T07:27:01;43.50;;;24.25;;
30970;SDS011;17651;52.262;10.498;2024-02-28T07:29:12;42.25;;;23.30;;
30970;SDS011;17651;52.262;10.498;2024-02-28T07:31:23;52.10;;;25.52;;
30970;SDS011;17651;52.262;10.498;2024-02-28T07:33:34;45.72;;;25.02;;
30970;SDS011;17651;52.262;10.498;2024-02-28T07:35:45;46.17;;;24.58;;
30970;SDS011;17651;52.262;10.498;2024-02-28T07:37:56;44.60;;;24.05;;
30970;SDS011;17651;52.262;10.498;2024-02-28T07:40:07;43.47;;;23.90;;
30970;SDS011;17651;52.262;10.498;2024-02-28T07:42:19;43.85;;;23.42;;
30970;SDS011;17651;52.262;10.498;2024-02-28T07:44:30;46.65;;;24.75;;
30970;SDS011;17651;52.262;10.498;2024-02-28T07:46:41;45.35;;;24.27;;
30970;SDS011;17651;52.262;10.498;2024-02-28T07:48:52;38.38;;;22.77;;
30970;SDS011;17651;52.262;10.498;2024-02-28T07:51:07;47.13;;;24.10;;
30970;SDS011;17651;52.262;10.498;2024-02-28T07:53:18;44.53;;;24.02;;
30970;SDS011;17651;52.262;10.498;2024-02-28T07:55:29;49.30;;;24.65;;
30970;SDS011;17651;52.262;10.498;2024-02-28T07:57:40;42.75;;;22.00;;
30970;SDS011;17651;52.262;10.498;2024-02-28T07:59:51;46.72;;;24.20;;
30970;SDS011;17651;52.262;10.498;2024-02-28T08:02:02;44.35;;;24.23;;
30970;SDS011;17651;52.262;10.498;2024-02-28T08:04:13;42.55;;;22.83;;
30970;SDS011;17651;52.262;10.498;2024-02-28T08:06:24;46.67;;;24.73;;
30970;SDS011;17651;52.262;10.498;2024-02-28T08:08:36;45.03;;;23.10;;
30970;SDS011;17651;52.262;10.498;2024-02-28T08:10:47;45.90;;;23.60;;
30970;SDS011;17651;52.262;10.498;2024-02-28T08:12:59;44.35;;;22.50;;
30970;SDS011;17651;52.262;10.498;2024-02-28T08:15:10;40.35;;;22.05;;
30970;SDS011;17651;52.262;10.498;2024-02-28T08:17:21;43.55;;;22.65;;
30970;SDS011;17651;52.262;10.498;2024-02-28T08:19:32;42.17;;;23.13;;
30970;SDS011;17651;52.262;10.498;2024-02-28T08:21:45;40.78;;;21.63;;
30970;SDS011;17651;52.262;10.498;2024-02-28T08:23:56;42.65;;;24.92;;
30970;SDS011;17651;52.262;10.498;2024-02-28T08:26:08;45.03;;;23.70;;
30970;SDS011;17651;52.262;10.498;2024-02-28T08:28:19;43.60;;;21.85;;
30970;SDS011;17651;52.262;10.498;2024-02-28T08:30:30;41.47;;;22.52;;
30970;SDS011;17651;52.262;10.498;2024-02-28T08:32:41;50.22;;;25.05;;
30970;SDS011;17651;52.262;10.498;2024-02-28T08:34:52;42.15;;;23.02;;
30970;SDS011;17651;52.262;10.498;2024-02-28T08:37:04;46.22;;;23.50;;
30970;SDS011;17651;52.262;10.498;2024-02-28T08:39:15;48.55;;;23.98;;
30970;SDS011;17651;52.262;10.498;2024-02-28T08:41:26;44.35;;;22.67;;
30970;SDS011;17651;52.262;10.498;2024-02-28T08:43:40;42.88;;;22.65;;
30970;SDS011;17651;52.262;10.498;2024-02-28T08:45:51;43.00;;;21.10;;
30970;SDS011;17651;52.262;10.498;2024-02-28T08:48:04;44.28;;;22.90;;
30970;SDS011;17651;52.262;10.498;2024-02-28T08:50:15;45.38;;;22.55;;
30970;SDS011;17651;52.262;10.498;2024-02-28T08:52:26;43.75;;;21.85;;
30970;SDS011;17651;52.262;10.498;2024-02-28T08:54:37;47.83;;;24.33;;
30970;SDS011;17651;52.262;10.498;2024-02-28T08:56:49;44.55;;;23.00;;
30970;SDS011;17651;52.262;10.498;2024-02-28T08:59:01;46.85;;;23.25;;
30970;SDS011;17651;52.262;10.498;2024-02-28T09:01:15;44.15;;;21.88;;
30970;SDS011;17651;52.262;10.498;2024-02-28T09:03:26;43.50;;;22.67;;
30970;SDS011;17651;52.262;10.498;2024-02-28T09:05:37;44.70;;;22.75;;
30970;SDS011;17651;52.262;10.498;2024-02-28T09:07:48;42.92;;;22.05;;
30970;SDS011;17651;52.262;10.498;2024-02-28T09:10:04;44.05;;;22.48;;
30970;SDS011;17651;52.262;10.498;2024-02-28T09:12:16;47.83;;;23.38;;
30970;SDS011;17651;52.262;10.498;2024-02-28T09:14:27;48.35;;;23.05;;
30970;SDS011;17651;52.262;10.498;2024-02-28T09:16:38;42.60;;;21.52;;
30970;SDS011;17651;52.262;10.498;2024-02-28T09:18:49;49.15;;;22.02;;
30970;SDS011;17651;52.262;10.498;2024-02-28T09:21:00;42.22;;;21.95;;
30970;SDS011;17651;52.262;10.498;2024-02-28T09:23:11;40.92;;;20.88;;
30970;SDS011;17651;52.262;10.498;2024-02-28T09:25:24;37.67;;;19.88;;
30970;SDS011;17651;52.262;10.498;2024-02-28T09:27:36;53.15;;;25.30;;
30970;SDS011;17651;52.262;10.498;2024-02-28T09:29:47;73.10;;;30.48;;
30970;SDS011;17651;52.262;10.498;2024-02-28T09:31:58;46.47;;;22.83;;
30970;SDS011;17651;52.262;10.498;2024-02-28T09:34:09;44.45;;;21.77;;
30970;SDS011;17651;52.262;10.498;2024-02-28T09:36:20;44.90;;;23.27;;
30970;SDS011;17651;52.262;10.498;2024-02-28T09:38:31;39.70;;;22.52;;
30970;SDS011;17651;52.262;10.498;2024-02-28T09:40:48;39.95;;;20.08;;
30970;SDS011;17651;52.262;10.498;2024-02-28T09:43:02;38.38;;;20.25;;
30970;SDS011;17651;52.262;10.498;2024-02-28T09:45:14;44.10;;;22.40;;
30970;SDS011;17651;52.262;10.498;2024-02-28T09:47:26;41.47;;;21.50;;
30970;SDS011;17651;52.262;10.498;2024-02-28T09:49:37;41.92;;;20.98;;
30970;SDS011;17651;52.262;10.498;2024-02-28T09:51:49;43.75;;;22.10;;
30970;SDS011;17651;52.262;10.498;2024-02-28T09:54:04;45.88;;;23.27;;
30970;SDS011;17651;52.262;10.498;2024-02-28T09:56:15;45.97;;;22.95;;
30970;SDS011;17651;52.262;10.498;2024-02-28T09:58:27;46.83;;;23.02;;
30970;SDS011;17651;52.262;10.498;2024-02-28T10:00:38;49.97;;;23.80;;
30970;SDS011;17651;52.262;10.498;2024-02-28T10:02:50;45.55;;;22.10;;
30970;SDS011;17651;52.262;10.498;2024-02-28T10:05:01;47.85;;;23.92;;
30970;SDS011;17651;52.262;10.498;2024-02-28T10:07:15;44.40;;;22.13;;
30970;SDS011;17651;52.262;10.498;2024-02-28T10:09:26;44.55;;;22.48;;
30970;SDS011;17651;52.262;10.498;2024-02-28T10:11:37;49.22;;;24.00;;
30970;SDS011;17651;52.262;10.498;2024-02-28T10:13:52;47.83;;;23.08;;
30970;SDS011;17651;52.262;10.498;2024-02-28T10:16:06;47.10;;;23.60;;
30970;SDS011;17651;52.262;10.498;2024-02-28T10:18:17;51.45;;;25.25;;
30970;SDS011;17651;52.262;10.498;2024-02-28T10:20:30;45.05;;;23.13;;
30970;SDS011;17651;52.262;10.498;2024-02-28T10:22:41;48.05;;;23.25;;
30970;SDS011;17651;52.262;10.498;2024-02-28T10:24:58;49.78;;;24.20;;
30970;SDS011;17651;52.262;10.498;2024-02-28T10:27:09;48.78;;;24.85;;
30970;SDS011;17651;52.262;10.498;2024-02-28T10:29:22;49.92;;;24.35;;
30970;SDS011;17651;52.262;10.498;2024-02-28T10:31:33;44.72;;;24.00;;
30970;SDS011;17651;52.262;10.498;2024-02-28T10:33:44;50.53;;;25.60;;
30970;SDS011;17651;52.262;10.498;2024-02-28T10:35:55;47.47;;;23.80;;
30970;SDS011;17651;52.262;10.498;2024-02-28T10:38:06;54.80;;;25.38;;
30970;SDS011;17651;52.262;10.498;2024-02-28T10:40:18;53.75;;;26.55;;
30970;SDS011;17651;52.262;10.498;2024-02-28T10:42:30;48.70;;;24.13;;
30970;SDS011;17651;52.262;10.498;2024-02-28T10:44:41;50.03;;;24.73;;
30970;SDS011;17651;52.262;10.498;2024-02-28T10:46:52;48.67;;;23.77;;
30970;SDS011;17651;52.262;10.498;2024-02-28T10:49:05;50.38;;;26.00;;
30970;SDS011;17651;52.262;10.498;2024-02-28T10:51:16;51.60;;;24.00;;
30970;SDS011;17651;52.262;10.498;2024-02-28T10:53:41;47.40;;;24.92;;
30970;SDS011;17651;52.262;10.498;2024-02-28T10:55:52;48.75;;;24.45;;
30970;SDS011;17651;52.262;10.498;2024-02-28T10:58:07;52.10;;;24.92;;
30970;SDS011;17651;52.262;10.498;2024-02-28T11:00:19;47.33;;;24.38;;
30970;SDS011;17651;52.262;10.498;2024-02-28T11:02:31;53.22;;;24.90;;
30970;SDS011;17651;52.262;10.498;2024-02-28T11:04:43;51.80;;;23.52;;
30970;SDS011;17651;52.262;10.498;2024-02-28T11:06:55;49.95;;;25.20;;
30970;SDS011;17651;52.262;10.498;2024-02-28T11:09:07;49.47;;;23.83;;
30970;SDS011;17651;52.262;10.498;2024-02-28T11:11:22;48.67;;;24.35;;
30970;SDS011;17651;52.262;10.498;2024-02-28T11:13:33;53.90;;;25.70;;
30970;SDS011;17651;52.262;10.498;2024-02-28T11:15:44;46.10;;;23.98;;
30970;SDS011;17651;52.262;10.498;2024-02-28T11:17:55;51.17;;;25.08;;
30970;SDS011;17651;52.262;10.498;2024-02-28T11:20:18;47.05;;;23.98;;
30970;SDS011;17651;52.262;10.498;2024-02-28T11:22:29;53.40;;;25.63;;
30970;SDS011;17651;52.262;10.498;2024-02-28T11:24:40;55.03;;;26.77;;
30970;SDS011;17651;52.262;10.498;2024-02-28T11:26:55;53.72;;;25.98;;
30970;SDS011;17651;52.262;10.498;2024-02-28T11:29:06;54.35;;;26.15;;
30970;SDS011;17651;52.262;10.498;2024-02-28T11:31:18;54.95;;;25.92;;
30970;SDS011;17651;52.262;10.498;2024-02-28T11:33:29;49.30;;;25.33;;
30970;SDS011;17651;52.262;10.498;2024-02-28T11:35:40;51.00;;;26.05;;
30970;SDS011;17651;52.262;10.498;2024-02-28T11:37:52;54.47;;;27.17;;
30970;SDS011;17651;52.262;10.498;2024-02-28T11:40:07;59.17;;;27.40;;
30970;SDS011;17651;52.262;10.498;2024-02-28T11:42:20;53.40;;;27.73;;
30970;SDS011;17651;52.262;10.498;2024-02-28T11:44:31;58.25;;;28.80;;
30970;SDS011;17651;52.262;10.498;2024-02-28T11:46:42;65.93;;;32.90;;
30970;SDS011;17651;52.262;10.498;2024-02-28T11:48:54;55.08;;;28.23;;
30970;SDS011;17651;52.262;10.498;2024-02-28T11:51:05;57.15;;;31.60;;
30970;SDS011;17651;52.262;10.498;2024-02-28T11:53:16;54.40;;;27.70;;
30970;SDS011;17651;52.262;10.498;2024-02-28T11:55:27;56.40;;;27.13;;
30970;SDS011;17651;52.262;10.498;2024-02-28T11:57:38;56.63;;;27.58;;
30970;SDS011;17651;52.262;10.498;2024-02-28T11:59:50;50.45;;;25.85;;
30970;SDS011;17651;52.262;10.498;2024-02-28T12:02:11;58.75;;;27.23;;
30970;SDS011;17651;52.262;10.498;2024-02-28T12:04:26;54.30;;;26.80;;
30970;SDS011;17651;52.262;10.498;2024-02-28T12:06:37;50.75;;;25.63;;
30970;SDS011;17651;52.262;10.498;2024-02-28T12:08:48;52.67;;;24.17;;
30970;SDS011;17651;52.262;10.498;2024-02-28T12:11:05;50.08;;;24.75;;
30970;SDS011;17651;52.262;10.498;2024-02-28T12:13:17;51.50;;;24.83;;
30970;SDS011;17651;52.262;10.498;2024-02-28T12:15:32;50.20;;;24.85;;
30970;SDS011;17651;52.262;10.498;2024-02-28T12:17:43;51.42;;;25.23;;
30970;SDS011;17651;52.262;10.498;2024-02-28T12:19:54;57.35;;;26.98;;
30970;SDS011;17651;52.262;10.498;2024-02-28T12:22:05;50.67;;;24.48;;
30970;SDS011;17651;52.262;10.498;2024-02-28T12:24:17;55.05;;;26.85;;
30970;SDS011;17651;52.262;10.498;2024-02-28T12:26:28;50.45;;;27.20;;
30970;SDS011;17651;52.262;10.498;2024-02-28T12:28:39;55.17;;;26.23;;
30970;SDS011;17651;52.262;10.498;2024-02-28T12:30:51;53.67;;;26.00;;
30970;SDS011;17651;52.262;10.498;2024-02-28T12:33:03;56.97;;;26.85;;
30970;SDS011;17651;52.262;10.498;2024-02-28T12:35:16;51.58;;;25.15;;
30970;SDS011;17651;52.262;10.498;2024-02-28T12:37:27;57.60;;;27.60;;